Time;durP1;ratioP1;P1;durP2;ratioP2;P2;SDS_P1;SDS_P2;PMS_P1;PMS_P2;Temp;Humidity;BMP_temperature;BMP_pressure;BME280_temperature;BME280_humidity;BME280_pressure;Samples;Min_cycle;Max_cycle;Signal;HPM_P1;HPM_P2
2022/05/19 00:02:02;;;;;;;12.65;2.67;;;;;;;;;;5072964;28;20115;-67
2022/05/19 00:04:29;;;;;;;12.20;2.28;;;;;;;;;;5072437;28;20028;-71
2022/05/19 00:06:54;;;;;;;11.52;2.25;;;;;;;;;;5069333;28;20105;-70
2022/05/19 00:09:21;;;;;;;5.13;2.13;;;;;;;;;;5072026;28;20024;-67
2022/05/19 00:11:48;;;;;;;11.82;2.08;;;;;;;;;;5072515;28;20040;-68
2022/05/19 00:14:14;;;;;;;10.85;2.10;;;;;;;;;;5072536;28;20471;-66
2022/05/19 00:16:41;;;;;;;8.80;2.03;;;;;;;;;;5072689;28;20060;-72
2022/05/19 00:19:07;;;;;;;14.02;2.42;;;;;;;;;;5072773;28;20029;-70
2022/05/19 00:21:33;;;;;;;11.18;1.77;;;;;;;;;;5072859;28;20146;-68
2022/05/19 00:23:59;;;;;;;11.57;2.40;;;;;;;;;;5071975;28;20028;-66
2022/05/19 00:26:25;;;;;;;21.98;4.53;;;;;;;;;;5072011;28;20044;-68
2022/05/19 00:28:51;;;;;;;8.52;1.88;;;;;;;;;;5072235;28;20150;-66
2022/05/19 00:31:17;;;;;;;10.25;1.83;;;;;;;;;;5071789;28;20032;-64
2022/05/19 00:33:43;;;;;;;13.80;2.42;;;;;;;;;;5071914;28;20028;-70
2022/05/19 00:36:11;;;;;;;10.30;2.55;;;;;;;;;;5071879;28;20094;-69
2022/05/19 00:38:38;;;;;;;12.05;2.53;;;;;;;;;;5068883;28;20071;-67
2022/05/19 00:41:05;;;;;;;13.15;2.72;;;;;;;;;;5071923;28;20028;-68
2022/05/19 00:43:35;;;;;;;12.63;2.55;;;;;;;;;;5070984;28;20108;-66
2022/05/19 00:46:10;;;;;;;10.45;2.10;;;;;;;;;;5071991;28;20032;-70
2022/05/19 00:49:01;;;;;;;11.85;2.05;;;;;;;;;;5072003;28;20044;-65
2022/05/19 00:51:54;;;;;;;9.70;2.33;;;;;;;;;;5072009;28;20047;-70
2022/05/19 00:54:29;;;;;;;7.90;1.45;;;;;;;;;;5071428;28;20040;-69
2022/05/19 00:57:21;;;;;;;10.40;2.50;;;;;;;;;;5071382;28;20495;-70
2022/05/19 00:59:56;;;;;;;11.38;1.83;;;;;;;;;;5071786;28;20052;-70
2022/05/19 01:02:26;;;;;;;14.15;2.53;;;;;;;;;;5071698;28;20479;-69
2022/05/19 01:04:57;;;;;;;14.02;2.10;;;;;;;;;;5070385;28;20043;-66
2022/05/19 01:07:32;;;;;;;10.45;2.47;;;;;;;;;;5071234;28;20071;-66
2022/05/19 01:09:59;;;;;;;10.13;2.05;;;;;;;;;;5068265;28;20029;-66
2022/05/19 01:12:26;;;;;;;11.20;2.80;;;;;;;;;;5071045;28;20029;-73
2022/05/19 01:14:52;;;;;;;14.63;2.13;;;;;;;;;;5071335;28;20116;-65
2022/05/19 01:17:18;;;;;;;9.77;2.35;;;;;;;;;;5071051;28;20025;-65
2022/05/19 01:19:48;;;;;;;10.52;2.33;;;;;;;;;;5071371;28;20043;-67
2022/05/19 01:22:28;;;;;;;11.48;2.10;;;;;;;;;;5071460;28;20025;-67
2022/05/19 01:25:11;;;;;;;12.48;2.25;;;;;;;;;;5071534;28;20075;-65
2022/05/19 01:27:38;;;;;;;14.90;3.20;;;;;;;;;;5071345;28;20040;-64
2022/05/19 01:30:07;;;;;;;10.35;2.20;;;;;;;;;;5071805;28;20047;-65
2022/05/19 01:32:33;;;;;;;10.50;2.05;;;;;;;;;;5071456;28;20099;-63
2022/05/19 01:34:59;;;;;;;12.80;2.47;;;;;;;;;;5071416;28;20594;-66
2022/05/19 01:37:26;;;;;;;17.70;2.33;;;;;;;;;;5071478;28;20071;-66
2022/05/19 01:40:34;;;;;;;7.22;1.88;;;;;;;;;;5059503;28;20176;-70
2022/05/19 01:43:07;;;;;;;14.93;2.20;;;;;;;;;;5068803;28;20051;-66
2022/05/19 01:46:04;;;;;;;8.65;2.22;;;;;;;;;;5071249;28;20097;-70
2022/05/19 01:49:00;;;;;;;9.27;2.15;;;;;;;;;;5070782;28;20461;-67
2022/05/19 01:51:51;;;;;;;8.38;2.42;;;;;;;;;;5071062;28;20174;-70
2022/05/19 01:54:35;;;;;;;11.98;2.55;;;;;;;;;;5073727;28;20168;-69
2022/05/19 01:57:15;;;;;;;14.63;2.50;;;;;;;;;;5074892;28;20056;-71
2022/05/19 02:00:03;;;;;;;11.30;2.30;;;;;;;;;;5075045;28;20044;-66
2022/05/19 02:02:50;;;;;;;11.25;2.50;;;;;;;;;;5074921;28;20489;-65
2022/05/19 02:05:46;;;;;;;11.93;2.28;;;;;;;;;;5075006;28;20028;-68
2022/05/19 02:08:26;;;;;;;10.07;3.05;;;;;;;;;;5074001;28;20475;-66
2022/05/19 02:10:55;;;;;;;13.98;2.55;;;;;;;;;;5074702;28;20106;-70
2022/05/19 02:13:23;;;;;;;15.77;2.70;;;;;;;;;;5071665;28;20020;-66
2022/05/19 02:15:51;;;;;;;10.32;2.03;;;;;;;;;;5075064;28;20455;-67
2022/05/19 02:18:18;;;;;;;11.23;2.28;;;;;;;;;;5074583;28;20019;-66
2022/05/19 02:20:46;;;;;;;16.90;2.28;;;;;;;;;;5074644;28;20029;-69
2022/05/19 02:23:14;;;;;;;18.13;2.58;;;;;;;;;;5074695;28;20020;-69
2022/05/19 02:25:52;;;;;;;7.18;2.00;;;;;;;;;;5074444;28;20036;-68
2022/05/19 02:28:31;;;;;;;17.08;2.35;;;;;;;;;;5074091;28;20086;-69
2022/05/19 02:30:58;;;;;;;13.05;2.15;;;;;;;;;;5074240;28;20040;-68
2022/05/19 02:33:25;;;;;;;18.73;2.78;;;;;;;;;;5074466;28;20028;-66
2022/05/19 02:35:51;;;;;;;12.40;2.00;;;;;;;;;;5074598;28;20467;-72
2022/05/19 02:38:19;;;;;;;11.77;2.50;;;;;;;;;;5073561;28;20512;-66
2022/05/19 02:40:45;;;;;;;13.10;1.90;;;;;;;;;;5074048;28;20438;-66
2022/05/19 02:43:12;;;;;;;10.60;2.45;;;;;;;;;;5073805;28;20056;-68
2022/05/19 02:45:38;;;;;;;12.75;2.55;;;;;;;;;;5071144;28;20042;-66
2022/05/19 02:48:06;;;;;;;18.25;3.10;;;;;;;;;;5073663;28;20029;-70
2022/05/19 02:50:32;;;;;;;10.40;2.45;;;;;;;;;;5073653;28;20402;-69
2022/05/19 02:52:59;;;;;;;9.77;2.63;;;;;;;;;;5073866;28;20104;-69
2022/05/19 02:55:25;;;;;;;10.45;2.13;;;;;;;;;;5073643;28;20029;-69
2022/05/19 02:57:51;;;;;;;15.88;2.40;;;;;;;;;;5073704;28;20063;-68
2022/05/19 03:00:24;;;;;;;15.80;2.70;;;;;;;;;;5073589;28;20040;-69
2022/05/19 03:02:51;;;;;;;13.45;2.20;;;;;;;;;;5073607;28;20025;-66
2022/05/19 03:05:20;;;;;;;10.05;2.10;;;;;;;;;;5073406;28;20025;-69
2022/05/19 03:07:46;;;;;;;13.52;2.35;;;;;;;;;;5073337;28;20033;-69
2022/05/19 03:10:14;;;;;;;11.38;1.90;;;;;;;;;;5072883;28;20024;-69
2022/05/19 03:12:40;;;;;;;11.10;2.25;;;;;;;;;;5073406;28;20059;-65
2022/05/19 03:15:07;;;;;;;9.55;2.10;;;;;;;;;;5072738;28;20064;-63
2022/05/19 03:17:35;;;;;;;15.10;2.67;;;;;;;;;;5073753;28;20040;-64
2022/05/19 03:20:01;;;;;;;9.65;1.92;;;;;;;;;;5073532;28;20024;-63
2022/05/19 03:22:27;;;;;;;7.10;2.05;;;;;;;;;;5073408;28;20036;-64
2022/05/19 03:24:54;;;;;;;10.43;1.67;;;;;;;;;;5073376;28;20017;-65
2022/05/19 03:27:20;;;;;;;14.85;2.13;;;;;;;;;;5073373;28;20048;-65
2022/05/19 03:29:47;;;;;;;11.55;2.35;;;;;;;;;;5073444;28;20063;-65
2022/05/19 03:32:14;;;;;;;12.30;2.13;;;;;;;;;;5073343;28;20066;-65
2022/05/19 03:34:40;;;;;;;14.13;2.55;;;;;;;;;;5073505;28;20021;-67
2022/05/19 03:37:07;;;;;;;12.40;2.42;;;;;;;;;;5072961;28;20083;-66
2022/05/19 03:39:35;;;;;;;8.88;2.40;;;;;;;;;;5073472;28;20028;-65
2022/05/19 03:42:03;;;;;;;11.57;2.45;;;;;;;;;;5073103;28;20032;-69
2022/05/19 03:44:28;;;;;;;10.10;2.30;;;;;;;;;;5072958;28;20112;-64
2022/05/19 03:46:54;;;;;;;14.80;2.47;;;;;;;;;;5072748;28;20423;-68
2022/05/19 03:49:20;;;;;;;10.60;2.95;;;;;;;;;;5072823;28;20027;-67
2022/05/19 03:51:46;;;;;;;22.92;3.65;;;;;;;;;;5072783;28;20369;-65
2022/05/19 03:54:12;;;;;;;14.80;2.10;;;;;;;;;;5072270;28;20375;-66
2022/05/19 03:56:38;;;;;;;13.00;2.50;;;;;;;;;;5071720;28;20056;-65
2022/05/19 03:59:04;;;;;;;9.35;1.83;;;;;;;;;;5072446;28;20111;-70
2022/05/19 04:01:31;;;;;;;10.52;1.80;;;;;;;;;;5065954;28;20652;-67
2022/05/19 04:03:57;;;;;;;10.77;1.83;;;;;;;;;;5062034;28;20475;-69
2022/05/19 04:06:23;;;;;;;21.35;3.95;;;;;;;;;;5060746;28;20381;-66
2022/05/19 04:08:50;;;;;;;8.73;2.15;;;;;;;;;;5051819;28;20040;-69
2022/05/19 04:11:16;;;;;;;9.63;2.25;;;;;;;;;;5059413;28;20033;-67
2022/05/19 04:13:42;;;;;;;18.77;3.92;;;;;;;;;;5055386;28;20021;-70
2022/05/19 04:16:08;;;;;;;7.82;2.05;;;;;;;;;;5051691;28;20048;-68
2022/05/19 04:18:35;;;;;;;6.88;2.10;;;;;;;;;;5066153;28;20031;-68
2022/05/19 04:21:00;;;;;;;10.95;1.90;;;;;;;;;;5072017;28;20077;-71
2022/05/19 04:23:27;;;;;;;7.40;1.75;;;;;;;;;;5070659;28;20103;-72
2022/05/19 04:25:53;;;;;;;11.55;1.95;;;;;;;;;;5065526;28;20190;-74
2022/05/19 04:28:20;;;;;;;9.93;2.20;;;;;;;;;;5071156;28;20043;-72
2022/05/19 04:30:46;;;;;;;8.02;2.17;;;;;;;;;;5071883;28;20037;-73
2022/05/19 04:33:12;;;;;;;7.43;2.33;;;;;;;;;;5071626;28;20024;-71
2022/05/19 04:35:39;;;;;;;11.23;2.05;;;;;;;;;;5070741;28;20043;-74
2022/05/19 04:38:10;;;;;;;10.85;2.40;;;;;;;;;;5069170;28;20390;-71
2022/05/19 04:40:39;;;;;;;14.90;2.25;;;;;;;;;;5071480;28;20502;-71
2022/05/19 04:43:06;;;;;;;9.45;1.75;;;;;;;;;;5070337;28;20512;-72
2022/05/19 04:45:32;;;;;;;6.60;2.10;;;;;;;;;;5070122;28;20078;-72
2022/05/19 04:47:58;;;;;;;9.68;1.92;;;;;;;;;;5070485;28;20024;-71
2022/05/19 04:50:24;;;;;;;4.38;1.77;;;;;;;;;;5059221;28;20080;-71
2022/05/19 04:52:51;;;;;;;5.22;1.67;;;;;;;;;;5049980;28;20029;-71
2022/05/19 04:55:17;;;;;;;5.32;1.60;;;;;;;;;;5048270;28;20052;-71
2022/05/19 04:57:44;;;;;;;7.97;1.80;;;;;;;;;;5048968;28;20100;-74
2022/05/19 05:00:13;;;;;;;9.95;2.30;;;;;;;;;;5047675;28;20169;-75
2022/05/19 05:02:39;;;;;;;7.63;2.10;;;;;;;;;;5049764;28;20100;-73
2022/05/19 05:05:09;;;;;;;9.35;2.13;;;;;;;;;;5050276;28;20543;-72
2022/05/19 05:07:35;;;;;;;6.78;1.75;;;;;;;;;;5070960;28;20025;-73
2022/05/19 05:10:02;;;;;;;10.00;1.90;;;;;;;;;;5069334;28;20131;-71
2022/05/19 05:12:27;;;;;;;6.93;1.45;;;;;;;;;;5071700;28;20024;-72
2022/05/19 05:14:53;;;;;;;7.68;1.70;;;;;;;;;;5071836;28;20085;-72
2022/05/19 05:17:21;;;;;;;7.55;2.03;;;;;;;;;;5071564;28;20486;-72
2022/05/19 05:19:48;;;;;;;9.98;2.13;;;;;;;;;;5071928;28;20036;-72
2022/05/19 05:22:14;;;;;;;3.78;1.70;;;;;;;;;;5072267;28;20371;-74
2022/05/19 05:24:40;;;;;;;5.95;1.70;;;;;;;;;;5072139;28;20039;-73
2022/05/19 05:27:06;;;;;;;13.98;2.42;;;;;;;;;;5071764;28;20071;-72
2022/05/19 05:29:34;;;;;;;11.27;1.77;;;;;;;;;;5074669;28;20174;-72
2022/05/19 05:32:00;;;;;;;10.05;1.85;;;;;;;;;;5076076;28;20391;-73
2022/05/19 05:34:27;;;;;;;7.10;1.60;;;;;;;;;;5075699;28;20056;-71
2022/05/19 05:36:53;;;;;;;8.57;2.35;;;;;;;;;;5079758;28;20416;-72
2022/05/19 05:39:19;;;;;;;5.18;1.90;;;;;;;;;;5075912;28;20154;-72
2022/05/19 05:41:45;;;;;;;9.63;2.22;;;;;;;;;;5075603;28;20078;-72
2022/05/19 05:44:11;;;;;;;8.30;1.90;;;;;;;;;;5068808;28;20083;-70
2022/05/19 05:46:40;;;;;;;6.95;2.05;;;;;;;;;;5057898;28;20114;-72
2022/05/19 05:49:07;;;;;;;8.32;1.73;;;;;;;;;;5055160;28;20506;-72
2022/05/19 05:51:33;;;;;;;11.88;2.28;;;;;;;;;;5054399;28;20025;-74
2022/05/19 05:53:59;;;;;;;5.55;1.83;;;;;;;;;;5055583;28;20120;-74
2022/05/19 05:56:26;;;;;;;7.07;1.83;;;;;;;;;;5054004;28;20085;-74
2022/05/19 05:58:52;;;;;;;7.88;1.50;;;;;;;;;;5055345;28;20037;-74
2022/05/19 06:01:20;;;;;;;12.18;2.22;;;;;;;;;;5055204;28;20033;-73
2022/05/19 06:03:48;;;;;;;12.73;2.45;;;;;;;;;;5055186;28;20040;-73
2022/05/19 06:06:14;;;;;;;7.72;1.63;;;;;;;;;;5055135;28;20407;-73
2022/05/19 06:08:41;;;;;;;8.80;2.05;;;;;;;;;;5054895;28;20214;-73
2022/05/19 06:11:07;;;;;;;3.85;1.42;;;;;;;;;;5054985;28;20021;-74
2022/05/19 06:13:34;;;;;;;12.80;2.40;;;;;;;;;;5054801;28;20052;-73
2022/05/19 06:15:59;;;;;;;8.82;2.03;;;;;;;;;;5054777;28;20033;-73
2022/05/19 06:18:25;;;;;;;9.07;1.60;;;;;;;;;;5055047;28;20369;-75
2022/05/19 06:20:53;;;;;;;6.60;1.88;;;;;;;;;;5054804;28;20036;-73
2022/05/19 06:23:20;;;;;;;4.50;1.30;;;;;;;;;;5054849;28;20078;-73
2022/05/19 06:25:46;;;;;;;7.32;1.45;;;;;;;;;;5054726;28;20067;-71
2022/05/19 06:28:12;;;;;;;3.65;1.10;;;;;;;;;;5054629;28;20037;-73
2022/05/19 06:30:39;;;;;;;4.47;1.40;;;;;;;;;;5054808;28;20387;-74
2022/05/19 06:33:09;;;;;;;4.22;1.80;;;;;;;;;;5054680;28;20064;-73
2022/05/19 06:35:37;;;;;;;3.60;1.40;;;;;;;;;;5054553;28;20041;-72
2022/05/19 06:38:04;;;;;;;5.43;1.33;;;;;;;;;;5054608;28;20021;-72
2022/05/19 06:40:31;;;;;;;2.95;1.15;;;;;;;;;;5053518;28;20543;-72
2022/05/19 06:42:57;;;;;;;3.35;1.15;;;;;;;;;;5054593;28;20071;-71
2022/05/19 06:45:27;;;;;;;5.10;1.40;;;;;;;;;;5053084;28;20065;-70
2022/05/19 06:47:54;;;;;;;5.63;1.30;;;;;;;;;;5058521;28;20115;-71
2022/05/19 06:50:21;;;;;;;3.58;1.13;;;;;;;;;;5072034;28;20104;-72
2022/05/19 06:53:04;;;;;;;3.75;1.27;;;;;;;;;;5072715;28;20448;-72
2022/05/19 06:55:33;;;;;;;7.47;1.20;;;;;;;;;;5071674;28;20039;-71
2022/05/19 06:57:59;;;;;;;6.18;1.30;;;;;;;;;;5074071;28;20044;-72
2022/05/19 07:00:28;;;;;;;8.95;1.55;;;;;;;;;;5073974;28;20079;-72
2022/05/19 07:02:57;;;;;;;2.67;1.00;;;;;;;;;;5074354;28;20035;-73
2022/05/19 07:05:27;;;;;;;4.35;1.02;;;;;;;;;;5073983;28;20055;-72
2022/05/19 07:07:53;;;;;;;2.83;1.08;;;;;;;;;;5074210;28;20398;-72
2022/05/19 07:10:21;;;;;;;5.18;1.40;;;;;;;;;;5074152;28;20103;-73
2022/05/19 07:12:48;;;;;;;5.18;1.00;;;;;;;;;;5074275;28;20064;-73
2022/05/19 07:15:19;;;;;;;4.20;1.20;;;;;;;;;;5074226;28;20024;-72
2022/05/19 07:17:45;;;;;;;2.92;0.90;;;;;;;;;;5073474;28;20036;-73
2022/05/19 07:22:56;;;;;;;4.50;1.10;;;;;;;;;;5073784;28;20060;-73
2022/05/19 07:25:22;;;;;;;2.72;0.90;;;;;;;;;;5073546;28;20090;-74
2022/05/19 07:27:48;;;;;;;3.92;1.00;;;;;;;;;;5073408;28;20055;-73
2022/05/19 07:30:14;;;;;;;2.70;0.80;;;;;;;;;;5073679;28;20025;-72
2022/05/19 07:32:41;;;;;;;3.45;0.95;;;;;;;;;;5073574;28;20032;-72
2022/05/19 07:35:08;;;;;;;2.22;0.93;;;;;;;;;;5073422;28;20108;-73
2022/05/19 07:37:34;;;;;;;2.53;0.80;;;;;;;;;;5073198;28;20485;-72
2022/05/19 07:40:00;;;;;;;1.98;0.80;;;;;;;;;;5073344;28;20096;-75
2022/05/19 07:42:26;;;;;;;5.07;0.77;;;;;;;;;;5073241;28;20033;-73
2022/05/19 07:44:52;;;;;;;1.67;0.82;;;;;;;;;;5072984;28;20467;-74
2022/05/19 07:47:19;;;;;;;2.17;0.90;;;;;;;;;;5073020;28;20040;-75
2022/05/19 07:49:46;;;;;;;5.55;1.23;;;;;;;;;;5073216;28;20032;-75
2022/05/19 07:52:13;;;;;;;1.45;0.60;;;;;;;;;;5072992;28;20080;-74
2022/05/19 07:54:39;;;;;;;1.05;0.68;;;;;;;;;;5073101;28;20108;-73
2022/05/19 07:57:06;;;;;;;1.67;0.80;;;;;;;;;;5072906;28;20455;-74
2022/05/19 07:59:33;;;;;;;2.85;0.95;;;;;;;;;;5072864;28;20033;-75
2022/05/19 08:02:01;;;;;;;3.17;1.00;;;;;;;;;;5072870;28;20082;-74
2022/05/19 08:04:27;;;;;;;4.20;0.80;;;;;;;;;;5071601;28;20025;-74
2022/05/19 08:06:53;;;;;;;3.03;0.90;;;;;;;;;;5072697;28;20029;-74
2022/05/19 08:12:05;;;;;;;4.28;1.40;;;;;;;;;;5072510;28;20487;-74
2022/05/19 08:17:17;;;;;;;2.10;0.82;;;;;;;;;;5072462;28;20032;-71
2022/05/19 08:19:45;;;;;;;3.65;0.93;;;;;;;;;;5072688;28;20035;-74
2022/05/19 08:22:11;;;;;;;1.98;0.85;;;;;;;;;;5072749;28;20142;-71
2022/05/19 08:24:37;;;;;;;2.25;1.15;;;;;;;;;;5072544;28;20052;-74
2022/05/19 08:27:04;;;;;;;1.15;0.68;;;;;;;;;;5072633;28;20063;-74
2022/05/19 08:29:29;;;;;;;3.90;1.27;;;;;;;;;;5072546;28;20566;-72
2022/05/19 08:31:55;;;;;;;3.63;1.10;;;;;;;;;;5073024;28;20107;-72
2022/05/19 08:34:22;;;;;;;2.40;0.90;;;;;;;;;;5072592;28;20021;-75
2022/05/19 08:36:48;;;;;;;3.85;0.90;;;;;;;;;;5072351;28;20093;-73
2022/05/19 08:39:14;;;;;;;6.15;1.15;;;;;;;;;;5072103;28;20028;-71
2022/05/19 08:41:48;;;;;;;1.92;1.00;;;;;;;;;;5072081;28;20035;-73
2022/05/19 08:44:16;;;;;;;5.32;1.10;;;;;;;;;;5072433;28;20119;-72
2022/05/19 08:46:49;;;;;;;1.50;0.85;;;;;;;;;;5071928;28;20024;-73
2022/05/19 08:49:24;;;;;;;3.00;1.00;;;;;;;;;;5071613;28;20036;-73
2022/05/19 08:52:17;;;;;;;2.10;1.00;;;;;;;;;;5072271;28;20032;-72
2022/05/19 08:54:47;;;;;;;5.03;0.90;;;;;;;;;;5071685;28;20047;-73
2022/05/19 08:57:30;;;;;;;2.65;0.95;;;;;;;;;;5070524;28;20383;-74
2022/05/19 09:00:17;;;;;;;2.65;0.98;;;;;;;;;;5071781;28;20060;-73
2022/05/19 09:03:02;;;;;;;6.05;1.13;;;;;;;;;;5071601;28;20037;-74
2022/05/19 09:05:42;;;;;;;2.53;0.93;;;;;;;;;;5072277;28;20037;-74
2022/05/19 09:08:32;;;;;;;4.00;1.02;;;;;;;;;;5071789;28;20032;-70
2022/05/19 09:11:21;;;;;;;1.65;0.90;;;;;;;;;;5071858;28;20394;-75
2022/05/19 09:14:06;;;;;;;3.70;1.27;;;;;;;;;;5071450;28;20391;-71
2022/05/19 09:16:35;;;;;;;2.08;0.77;;;;;;;;;;5071311;28;20029;-73
2022/05/19 09:19:04;;;;;;;1.73;0.90;;;;;;;;;;5071521;28;20029;-75
2022/05/19 09:21:30;;;;;;;2.38;1.05;;;;;;;;;;5070950;28;20051;-71
2022/05/19 09:23:56;;;;;;;1.80;1.00;;;;;;;;;;5071676;28;20090;-75
2022/05/19 09:26:52;;;;;;;3.20;1.00;;;;;;;;;;5071892;28;20115;-71
2022/05/19 09:29:29;;;;;;;3.63;0.98;;;;;;;;;;5051275;28;20053;-73
2022/05/19 09:32:03;;;;;;;2.30;1.00;;;;;;;;;;5052002;28;20457;-75
2022/05/19 09:34:30;;;;;;;2.92;0.93;;;;;;;;;;5052108;28;20411;-73
2022/05/19 09:37:08;;;;;;;2.65;0.90;;;;;;;;;;5051795;28;20078;-77
2022/05/19 09:39:44;;;;;;;2.63;1.10;;;;;;;;;;5051733;28;20082;-73
2022/05/19 09:42:15;;;;;;;3.55;1.00;;;;;;;;;;5051763;28;20360;-76
2022/05/19 09:44:50;;;;;;;4.55;1.00;;;;;;;;;;5051732;28;20025;-75
2022/05/19 09:47:27;;;;;;;3.88;0.80;;;;;;;;;;5051441;28;20029;-75
2022/05/19 09:50:05;;;;;;;5.80;1.13;;;;;;;;;;5049994;28;20425;-74
2022/05/19 09:52:32;;;;;;;1.80;0.90;;;;;;;;;;5051653;28;20417;-76
2022/05/19 09:55:06;;;;;;;1.95;0.90;;;;;;;;;;5051756;28;20029;-77
2022/05/19 09:57:51;;;;;;;;;;;;;;;;;;5051476;28;20049;-75
2022/05/19 10:00:39;;;;;;;2.22;0.90;;;;;;;;;;5051590;28;19924;-71
2022/05/19 10:03:22;;;;;;;2.40;1.08;;;;;;;;;;5051527;28;20065;-74
2022/05/19 10:05:50;;;;;;;7.45;1.30;;;;;;;;;;5051433;28;20112;-74
2022/05/19 10:08:33;;;;;;;1.83;1.00;;;;;;;;;;5051081;28;20025;-70
2022/05/19 10:11:04;;;;;;;3.25;0.95;;;;;;;;;;5054842;28;20476;-72
2022/05/19 10:13:51;;;;;;;2.03;0.90;;;;;;;;;;5051476;28;20041;-70
2022/05/19 10:16:49;;;;;;;4.00;1.00;;;;;;;;;;5055441;28;20499;-74
2022/05/19 10:19:45;;;;;;;5.07;1.08;;;;;;;;;;5055400;28;20033;-73
2022/05/19 10:22:20;;;;;;;4.07;1.00;;;;;;;;;;5055113;28;20505;-72
2022/05/19 10:24:52;;;;;;;2.40;0.80;;;;;;;;;;5055061;28;20124;-72
2022/05/19 10:33:17;;;;;;;3.67;1.02;;;;;;;;;;5055016;28;20365;-73
2022/05/19 10:35:55;;;;;;;2.03;1.15;;;;;;;;;;5055145;28;20372;-74
2022/05/19 10:38:29;;;;;;;6.50;1.45;;;;;;;;;;5055212;28;20036;-75
2022/05/19 10:41:21;;;;;;;2.63;1.00;;;;;;;;;;5055045;28;20112;-73
2022/05/19 10:44:04;;;;;;;6.88;1.40;;;;;;;;;;5046588;28;20048;-74
2022/05/19 10:46:53;;;;;;;2.58;0.93;;;;;;;;;;5054856;28;20505;-71
2022/05/19 10:49:57;;;;;;;2.10;0.80;;;;;;;;;;5043544;28;20052;-72
2022/05/19 10:52:55;;;;;;;1.30;0.95;;;;;;;;;;5054428;28;20431;-71
2022/05/19 10:55:28;;;;;;;3.80;1.10;;;;;;;;;;5054187;28;20086;-72
2022/05/19 10:58:01;;;;;;;2.63;0.90;;;;;;;;;;5054284;28;20036;-73
2022/05/19 11:00:44;;;;;;;1.98;0.93;;;;;;;;;;5054543;28;20447;-72
2022/05/19 11:03:47;;;;;;;1.77;0.80;;;;;;;;;;5054721;28;20480;-74
2022/05/19 11:06:51;;;;;;;6.47;1.63;;;;;;;;;;5054544;28;20441;-73
2022/05/19 11:09:36;;;;;;;1.77;1.00;;;;;;;;;;5054255;28;20040;-73
2022/05/19 11:12:07;;;;;;;1.42;0.85;;;;;;;;;;5054246;28;20025;-71
2022/05/19 11:14:55;;;;;;;1.60;1.00;;;;;;;;;;5054190;28;20478;-72
2022/05/19 11:17:38;;;;;;;3.03;0.95;;;;;;;;;;5053786;28;20029;-71
2022/05/19 11:20:37;;;;;;;9.88;1.40;;;;;;;;;;5052924;28;20036;-71
2022/05/19 11:23:18;;;;;;;2.95;1.02;;;;;;;;;;5050154;28;20496;-71
2022/05/19 11:28:49;;;;;;;4.25;1.13;;;;;;;;;;5065781;28;20036;-71
2022/05/19 11:31:21;;;;;;;2.67;1.20;;;;;;;;;;5053859;28;20094;-76
2022/05/19 11:33:52;;;;;;;1.73;0.88;;;;;;;;;;5053382;28;20033;-76
2022/05/19 11:36:36;;;;;;;2.78;1.17;;;;;;;;;;5064829;28;20116;-75
2022/05/19 11:39:11;;;;;;;2.10;1.30;;;;;;;;;;5053186;28;20024;-75
2022/05/19 11:41:38;;;;;;;3.25;1.10;;;;;;;;;;5053432;28;20083;-73
2022/05/19 11:44:28;;;;;;;3.70;1.20;;;;;;;;;;5053657;28;20021;-74
2022/05/19 11:47:00;;;;;;;4.75;1.10;;;;;;;;;;5067045;28;20028;-71
2022/05/19 11:55:30;;;;;;;2.22;0.98;;;;;;;;;;5072858;28;20056;-72
2022/05/19 11:58:03;;;;;;;3.17;1.10;;;;;;;;;;5071914;28;20031;-71
2022/05/19 12:00:30;;;;;;;3.95;1.27;;;;;;;;;;5072405;28;20037;-70
2022/05/19 12:03:18;;;;;;;3.25;1.23;;;;;;;;;;5072817;28;20024;-74
2022/05/19 12:06:19;;;;;;;3.38;1.00;;;;;;;;;;5073016;28;20574;-74
2022/05/19 12:08:52;;;;;;;6.55;1.63;;;;;;;;;;5072717;28;20037;-72
2022/05/19 12:11:47;;;;;;;3.20;1.20;;;;;;;;;;5072748;28;20138;-74
2022/05/19 12:14:27;;;;;;;2.17;0.95;;;;;;;;;;5071863;28;20440;-72
2022/05/19 12:17:09;;;;;;;2.33;0.98;;;;;;;;;;5072989;28;20104;-74
2022/05/19 12:19:51;;;;;;;2.75;0.90;;;;;;;;;;5072914;28;20040;-73
2022/05/19 12:22:17;;;;;;;6.95;1.10;;;;;;;;;;5072763;28;20035;-72
2022/05/19 12:25:14;;;;;;;4.25;1.00;;;;;;;;;;5072742;28;20040;-72
2022/05/19 12:27:44;;;;;;;1.50;1.25;;;;;;;;;;5070836;28;20028;-71
2022/05/19 12:33:37;;;;;;;2.70;1.10;;;;;;;;;;5048344;28;20124;-72
2022/05/19 12:36:23;;;;;;;6.38;1.23;;;;;;;;;;5049080;28;20033;-73
2022/05/19 12:38:51;;;;;;;2.63;0.90;;;;;;;;;;5049318;28;20083;-73
2022/05/19 12:41:23;;;;;;;2.17;0.90;;;;;;;;;;5050544;28;20039;-74
2022/05/19 12:43:51;;;;;;;2.33;1.00;;;;;;;;;;5051040;28;20035;-70
2022/05/19 12:46:38;;;;;;;2.83;1.05;;;;;;;;;;5051643;28;20021;-71
2022/05/19 12:49:20;;;;;;;2.30;1.30;;;;;;;;;;5049906;28;20052;-72
2022/05/19 12:51:46;;;;;;;4.10;1.00;;;;;;;;;;5051548;28;20056;-71
2022/05/19 12:54:12;;;;;;;2.53;0.75;;;;;;;;;;5051162;28;20029;-72
2022/05/19 12:56:41;;;;;;;3.13;1.10;;;;;;;;;;5050790;28;20037;-71
2022/05/19 12:59:34;;;;;;;5.10;1.38;;;;;;;;;;5050871;28;20044;-72
2022/05/19 13:02:24;;;;;;;3.65;0.90;;;;;;;;;;5051459;28;20048;-73
2022/05/19 13:05:01;;;;;;;5.05;1.17;;;;;;;;;;5050485;28;20040;-73
2022/05/19 13:07:32;;;;;;;4.88;1.00;;;;;;;;;;5050777;28;20033;-73
2022/05/19 13:10:15;;;;;;;2.55;1.00;;;;;;;;;;5051044;28;20079;-73
2022/05/19 13:12:49;;;;;;;2.65;0.98;;;;;;;;;;5050352;28;20044;-72
2022/05/19 13:15:25;;;;;;;4.50;1.55;;;;;;;;;;5050629;28;20454;-72
2022/05/19 13:17:53;;;;;;;1.77;0.95;;;;;;;;;;5051188;28;20106;-71
2022/05/19 13:20:24;;;;;;;2.30;1.15;;;;;;;;;;5050183;28;20040;-71
2022/05/19 13:22:55;;;;;;;3.22;1.15;;;;;;;;;;5051665;28;20140;-70
2022/05/19 13:25:21;;;;;;;2.45;1.00;;;;;;;;;;5050967;28;20033;-70
2022/05/19 13:30:47;;;;;;;1.90;0.80;;;;;;;;;;5051605;28;20024;-70
2022/05/19 13:33:21;;;;;;;1.42;0.88;;;;;;;;;;5056835;28;20486;-71
2022/05/19 13:36:05;;;;;;;1.85;0.90;;;;;;;;;;5069044;28;20040;-71
2022/05/19 13:38:31;;;;;;;3.03;1.10;;;;;;;;;;5069341;28;20043;-73
2022/05/19 13:40:58;;;;;;;3.25;1.30;;;;;;;;;;5070501;28;20016;-70
2022/05/19 13:43:37;;;;;;;5.88;1.30;;;;;;;;;;5055065;28;20441;-75
2022/05/19 13:46:11;;;;;;;2.85;0.90;;;;;;;;;;5059600;28;20063;-71
2022/05/19 13:48:51;;;;;;;4.43;1.13;;;;;;;;;;5050275;28;20074;-73
2022/05/19 13:51:21;;;;;;;1.70;0.98;;;;;;;;;;5054463;28;20036;-72
2022/05/19 13:54:08;;;;;;;1.50;0.80;;;;;;;;;;5054938;28;20037;-73
2022/05/19 13:56:38;;;;;;;3.03;0.70;;;;;;;;;;5054245;28;20041;-73
2022/05/19 13:59:06;;;;;;;3.67;1.00;;;;;;;;;;5067766;28;20032;-71
2022/05/19 14:01:49;;;;;;;1.73;1.13;;;;;;;;;;5060229;28;20039;-73
2022/05/19 14:04:18;;;;;;;3.47;0.88;;;;;;;;;;5056121;28;20056;-72
2022/05/19 14:06:45;;;;;;;4.22;0.95;;;;;;;;;;5055878;28;20566;-72
2022/05/19 14:09:43;;;;;;;1.35;0.70;;;;;;;;;;5058149;28;20049;-74
2022/05/19 14:12:25;;;;;;;5.85;0.90;;;;;;;;;;5056366;28;20041;-73
2022/05/19 14:14:57;;;;;;;7.32;1.00;;;;;;;;;;5057647;28;20369;-73
2022/05/19 14:17:25;;;;;;;2.97;1.30;;;;;;;;;;5055092;28;20037;-76
2022/05/19 14:19:52;;;;;;;3.17;0.90;;;;;;;;;;5062795;28;20483;-75
2022/05/19 14:22:20;;;;;;;6.43;1.42;;;;;;;;;;5072173;28;20035;-78
2022/05/19 14:24:47;;;;;;;1.80;0.93;;;;;;;;;;5074229;28;20024;-73
2022/05/19 14:27:16;;;;;;;3.22;1.20;;;;;;;;;;5073254;28;20032;-75
2022/05/19 14:29:47;;;;;;;2.10;0.70;;;;;;;;;;5074835;28;20207;-77
2022/05/19 14:32:16;;;;;;;2.60;1.10;;;;;;;;;;5074474;28;20032;-74
2022/05/19 14:34:43;;;;;;;2.25;0.90;;;;;;;;;;5074456;28;20024;-76
2022/05/19 14:37:12;;;;;;;2.70;1.10;;;;;;;;;;5074601;28;20082;-73
2022/05/19 14:39:52;;;;;;;4.15;1.00;;;;;;;;;;5074118;28;20487;-77
2022/05/19 14:45:13;;;;;;;3.15;1.00;;;;;;;;;;5075309;28;20032;-76
2022/05/19 14:47:44;;;;;;;3.67;1.00;;;;;;;;;;5074324;28;20259;-76
2022/05/19 14:50:17;;;;;;;1.83;0.80;;;;;;;;;;5074256;28;20033;-78
2022/05/19 14:52:51;;;;;;;2.88;1.02;;;;;;;;;;5074907;28;20125;-74
2022/05/19 14:55:26;;;;;;;4.05;1.00;;;;;;;;;;5073204;28;20418;-76
2022/05/19 14:57:56;;;;;;;2.58;1.10;;;;;;;;;;5072374;28;20033;-72
2022/05/19 15:00:28;;;;;;;2.67;1.20;;;;;;;;;;5073142;28;20094;-76
2022/05/19 15:02:55;;;;;;;1.30;0.80;;;;;;;;;;5073623;28;20029;-75
2022/05/19 15:05:22;;;;;;;4.50;1.30;;;;;;;;;;5073649;28;20043;-77
2022/05/19 15:07:51;;;;;;;2.50;1.20;;;;;;;;;;5073933;28;20128;-77
2022/05/19 15:10:19;;;;;;;5.47;1.10;;;;;;;;;;5070428;28;20048;-72
2022/05/19 15:12:46;;;;;;;4.55;1.10;;;;;;;;;;5072253;28;20454;-74
2022/05/19 15:15:13;;;;;;;2.63;1.30;;;;;;;;;;5073879;28;20107;-71
2022/05/19 15:17:39;;;;;;;2.83;1.30;;;;;;;;;;5073503;28;20080;-73
2022/05/19 15:20:08;;;;;;;4.20;1.13;;;;;;;;;;5062638;28;20033;-72
2022/05/19 15:22:35;;;;;;;3.67;1.02;;;;;;;;;;5052571;28;20025;-71
2022/05/19 15:25:02;;;;;;;5.97;1.20;;;;;;;;;;5064569;28;20025;-71
2022/05/19 15:27:31;;;;;;;88.90;19.35;;;;;;;;;;5065673;28;20115;-70
2022/05/19 15:29:57;;;;;;;6.32;2.72;;;;;;;;;;5052781;28;20025;-74
2022/05/19 15:32:24;;;;;;;3.00;1.23;;;;;;;;;;5053907;28;20036;-71
2022/05/19 15:34:50;;;;;;;2.60;1.00;;;;;;;;;;5071373;28;20039;-72
2022/05/19 15:37:17;;;;;;;4.38;1.05;;;;;;;;;;5053889;28;20514;-70
2022/05/19 15:39:44;;;;;;;1.38;0.90;;;;;;;;;;5057602;28;20432;-70
2022/05/19 15:42:11;;;;;;;2.40;1.10;;;;;;;;;;5073358;28;20059;-70